createdAt,value
2018-05-27T00:00:47.074Z,15.60
2018-05-27T00:03:20.749Z,15.60
2018-05-27T00:05:54.344Z,15.50
2018-05-27T00:08:28.066Z,15.60
2018-05-27T00:11:01.617Z,15.60
2018-05-27T00:13:35.192Z,15.60
2018-05-27T00:16:08.710Z,15.60
2018-05-27T00:18:43.010Z,15.50
2018-05-27T00:21:16.608Z,15.40
2018-05-27T00:23:50.187Z,15.40
2018-05-27T00:26:24.612Z,15.40
2018-05-27T00:28:58.181Z,15.40
2018-05-27T00:31:31.825Z,15.40
2018-05-27T00:34:05.517Z,15.40
2018-05-27T00:36:39.074Z,15.40
2018-05-27T00:39:13.418Z,15.20
2018-05-27T00:41:47.067Z,15.20
2018-05-27T00:44:20.648Z,15.20
2018-05-27T00:46:54.214Z,15.10
2018-05-27T00:49:28.508Z,15.10
2018-05-27T00:52:02.230Z,15.10
2018-05-27T00:54:36.659Z,15.00
2018-05-27T00:57:10.375Z,15.00
2018-05-27T00:59:44.169Z,15.00
2018-05-27T01:02:17.641Z,15.00
2018-05-27T01:04:51.196Z,15.00
2018-05-27T01:07:24.775Z,15.00
2018-05-27T01:09:58.390Z,15.00
2018-05-27T01:12:32.023Z,15.00
2018-05-27T01:15:05.550Z,15.00
2018-05-27T01:17:39.091Z,15.00
2018-05-27T01:20:13.390Z,15.00
2018-05-27T01:22:47.831Z,14.90
2018-05-27T01:25:21.414Z,14.90
2018-05-27T01:27:54.978Z,14.80
2018-05-27T01:30:28.624Z,14.80
2018-05-27T01:33:02.219Z,14.70
2018-05-27T01:35:35.814Z,14.70
2018-05-27T01:38:09.351Z,14.50
2018-05-27T01:40:43.678Z,14.10
2018-05-27T01:43:18.054Z,13.80
2018-05-27T01:45:51.767Z,13.80
2018-05-27T01:48:25.290Z,13.80
2018-05-27T01:50:58.779Z,13.80
2018-05-27T01:53:32.348Z,13.80
2018-05-27T01:56:05.945Z,13.90
2018-05-27T01:58:39.477Z,13.90
2018-05-27T02:01:13.169Z,13.90
2018-05-27T02:03:46.743Z,13.90
2018-05-27T02:06:20.479Z,13.90
2018-05-27T02:08:54.215Z,13.90
2018-05-27T02:11:28.685Z,13.80
2018-05-27T02:14:03.033Z,13.90
2018-05-27T02:16:36.670Z,13.90
2018-05-27T02:19:11.042Z,13.90
2018-05-27T02:21:44.645Z,13.90
2018-05-27T02:24:18.223Z,13.80
2018-05-27T02:26:51.813Z,13.80
2018-05-27T02:29:25.434Z,13.80
2018-05-27T02:31:58.934Z,13.70
2018-05-27T02:34:32.457Z,13.80
2018-05-27T02:37:05.995Z,13.80
2018-05-27T02:39:39.534Z,13.70
2018-05-27T02:42:13.838Z,13.60
2018-05-27T02:44:47.570Z,13.50
2018-05-27T02:47:21.117Z,13.50
2018-05-27T02:49:55.474Z,13.50
2018-05-27T02:52:29.151Z,13.40
2018-05-27T02:55:02.697Z,13.50
2018-05-27T02:57:36.232Z,13.50
2018-05-27T03:00:10.488Z,13.50
2018-05-27T03:02:44.088Z,13.50
2018-05-27T03:05:18.421Z,13.50
2018-05-27T03:07:52.165Z,13.50
2018-05-27T03:10:25.798Z,13.50
2018-05-27T03:12:59.351Z,13.50
2018-05-27T03:15:33.051Z,13.50
2018-05-27T03:18:06.609Z,13.40
2018-05-27T03:20:40.160Z,13.30
2018-05-27T03:23:13.811Z,13.20
2018-05-27T03:25:47.324Z,13.20
2018-05-27T03:28:20.911Z,13.20
2018-05-27T03:30:54.433Z,13.20
2018-05-27T03:33:27.970Z,13.20
2018-05-27T03:36:01.632Z,13.20
2018-05-27T03:38:35.227Z,13.30
2018-05-27T03:41:09.535Z,13.10
2018-05-27T03:43:43.246Z,13.10
2018-05-27T03:46:17.766Z,13.10
2018-05-27T03:48:51.402Z,13.10
2018-05-27T03:51:24.942Z,13.10
2018-05-27T03:53:58.428Z,13.10
2018-05-27T03:56:31.973Z,13.10
2018-05-27T03:59:05.484Z,13.20
2018-05-27T04:01:39.031Z,13.30
2018-05-27T04:04:24.398Z,13.30
2018-05-27T04:07:09.904Z,13.10
2018-05-27T04:09:44.240Z,12.80
2018-05-27T04:12:18.582Z,13.10
2018-05-27T04:14:52.119Z,13.00
2018-05-27T04:17:25.730Z,13.10
2018-05-27T04:19:59.225Z,13.10
2018-05-27T04:22:32.771Z,13.00
2018-05-27T04:25:06.339Z,13.00
2018-05-27T04:27:39.959Z,12.90
2018-05-27T04:30:14.365Z,13.20
2018-05-27T04:32:48.868Z,12.90
2018-05-27T04:35:23.225Z,12.70
2018-05-27T04:37:56.954Z,12.70
2018-05-27T04:40:30.613Z,13.00
2018-05-27T04:43:04.501Z,13.20
2018-05-27T04:45:38.227Z,13.40
2018-05-27T04:48:12.835Z,13.80
2018-05-27T04:50:46.558Z,13.70
2018-05-27T04:53:20.077Z,13.70
2018-05-27T04:55:53.646Z,13.90
2018-05-27T04:58:27.240Z,14.10
2018-05-27T05:01:00.819Z,14.30
2018-05-27T05:03:34.360Z,14.40
2018-05-27T05:06:07.889Z,14.60
2018-05-27T05:08:41.447Z,14.70
2018-05-27T05:11:15.762Z,15.00
2018-05-27T05:13:49.426Z,15.00
2018-05-27T05:16:22.969Z,15.10
2018-05-27T05:18:57.292Z,15.20
2018-05-27T05:21:30.953Z,15.20
2018-05-27T05:24:04.502Z,15.40
2018-05-27T05:26:38.076Z,15.50
2018-05-27T05:29:11.589Z,15.60
2018-05-27T05:31:45.177Z,15.80
2018-05-27T05:34:19.491Z,15.90
2018-05-27T05:36:53.087Z,15.90
2018-05-27T05:39:26.632Z,15.50
2018-05-27T05:42:00.171Z,15.40
2018-05-27T05:44:33.720Z,15.40
2018-05-27T05:47:08.020Z,15.90
2018-05-27T05:49:41.614Z,15.90
2018-05-27T05:52:15.308Z,16.10
2018-05-27T05:54:49.193Z,16.20
2018-05-27T05:57:23.784Z,16.50
2018-05-27T05:59:57.385Z,16.50
2018-05-27T06:02:31.747Z,17.00
2018-05-27T06:05:05.482Z,16.90
2018-05-27T06:07:39.293Z,16.90
2018-05-27T06:10:13.004Z,16.90
2018-05-27T06:12:46.568Z,17.10
2018-05-27T06:15:20.163Z,17.40
2018-05-27T06:17:53.691Z,17.40
2018-05-27T06:20:28.045Z,17.90
2018-05-27T06:23:02.413Z,18.00
2018-05-27T06:25:36.202Z,18.00
2018-05-27T06:28:09.843Z,18.00
2018-05-27T06:30:44.167Z,18.10
2018-05-27T06:33:17.847Z,18.10
2018-05-27T06:35:51.486Z,18.40
2018-05-27T06:38:25.019Z,18.60
2018-05-27T06:40:58.524Z,18.70
2018-05-27T06:43:32.094Z,19.00
2018-05-27T06:46:05.578Z,19.10
2018-05-27T06:48:39.106Z,19.00
2018-05-27T06:51:13.494Z,19.30
2018-05-27T06:53:46.984Z,19.30
2018-05-27T06:56:20.543Z,19.50
2018-05-27T06:58:54.057Z,19.60
2018-05-27T07:01:27.628Z,19.80
2018-05-27T07:04:01.239Z,19.90
2018-05-27T07:06:35.594Z,20.20
2018-05-27T07:09:10.036Z,20.30
2018-05-27T07:11:44.609Z,20.50
2018-05-27T07:14:18.338Z,20.50
2018-05-27T07:16:51.903Z,20.60
2018-05-27T07:19:25.398Z,20.70
2018-05-27T07:21:58.937Z,20.90
2018-05-27T07:24:32.502Z,21.00
2018-05-27T07:27:06.031Z,21.00
2018-05-27T07:29:39.537Z,21.10
2018-05-27T07:32:13.035Z,21.20
2018-05-27T07:34:46.603Z,21.20
2018-05-27T07:37:20.288Z,21.20
2018-05-27T07:39:53.962Z,21.30
2018-05-27T07:42:28.457Z,21.40
2018-05-27T07:45:02.175Z,21.40
2018-05-27T07:47:35.823Z,21.50
2018-05-27T07:50:09.559Z,21.60
2018-05-27T07:52:43.866Z,21.60
2018-05-27T07:55:17.492Z,21.50
2018-05-27T07:57:51.074Z,21.70
2018-05-27T08:00:24.604Z,21.80
2018-05-27T08:02:58.984Z,22.00
2018-05-27T08:05:32.509Z,22.00
2018-05-27T08:08:06.151Z,22.10
2018-05-27T08:10:39.926Z,22.20
2018-05-27T08:13:13.678Z,22.10
2018-05-27T08:15:47.203Z,22.10
2018-05-27T08:18:20.715Z,22.20
2018-05-27T08:20:54.287Z,22.20
2018-05-27T08:23:27.870Z,22.30
2018-05-27T08:26:02.339Z,22.50
2018-05-27T08:28:35.907Z,22.40
2018-05-27T08:31:09.505Z,22.50
2018-05-27T08:33:43.113Z,22.60
2018-05-27T08:36:16.795Z,22.70
2018-05-27T08:38:50.456Z,22.80
2018-05-27T08:41:24.058Z,22.90
2018-05-27T08:43:57.642Z,23.20
2018-05-27T08:46:31.280Z,23.30
2018-05-27T08:49:04.894Z,23.40
2018-05-27T08:51:39.224Z,23.60
2018-05-27T08:54:13.555Z,23.70
2018-05-27T08:56:47.973Z,23.70
2018-05-27T08:59:21.724Z,23.70
2018-05-27T09:01:55.397Z,23.70
2018-05-27T09:04:28.965Z,23.80
2018-05-27T09:07:02.489Z,23.90
2018-05-27T09:09:36.291Z,24.10
2018-05-27T09:12:09.810Z,24.30
2018-05-27T09:14:43.472Z,24.40
2018-05-27T09:17:17.082Z,24.50
2018-05-27T09:19:50.651Z,24.50
2018-05-27T09:22:24.316Z,24.60
2018-05-27T09:24:57.876Z,24.40
2018-05-27T09:27:31.631Z,24.30
2018-05-27T09:30:05.316Z,23.80
2018-05-27T09:32:38.887Z,23.90
2018-05-27T09:35:12.378Z,24.10
2018-05-27T09:37:46.837Z,24.30
2018-05-27T09:40:20.322Z,24.20
2018-05-27T09:42:54.623Z,24.40
2018-05-27T09:45:28.338Z,24.40
2018-05-27T09:48:01.975Z,24.60
2018-05-27T09:50:36.451Z,24.70
2018-05-27T09:53:10.172Z,24.70
2018-05-27T09:55:43.897Z,24.60
2018-05-27T09:58:18.412Z,25.30
2018-05-27T10:00:52.910Z,25.50
2018-05-27T10:03:27.212Z,25.70
2018-05-27T10:06:00.887Z,25.60
2018-05-27T10:08:34.427Z,25.50
2018-05-27T10:11:08.150Z,25.80
2018-05-27T10:13:41.925Z,25.90
2018-05-27T10:16:16.356Z,25.90
2018-05-27T10:18:50.079Z,25.90
2018-05-27T10:21:23.623Z,25.90
2018-05-27T10:23:57.315Z,26.10
2018-05-27T10:26:30.944Z,26.20
2018-05-27T10:29:04.703Z,26.40
2018-05-27T10:31:38.549Z,26.40
2018-05-27T10:34:12.291Z,26.10
2018-05-27T10:36:46.694Z,26.10
2018-05-27T10:39:20.307Z,26.10
2018-05-27T10:41:53.831Z,26.20
2018-05-27T10:44:27.341Z,26.30
2018-05-27T10:47:00.998Z,26.50
2018-05-27T10:49:34.569Z,26.40
2018-05-27T10:52:08.190Z,26.40
2018-05-27T10:54:41.730Z,26.40
2018-05-27T10:57:15.431Z,26.40
2018-05-27T10:59:49.023Z,26.10
2018-05-27T11:02:23.431Z,26.00
2018-05-27T11:04:56.987Z,25.90
2018-05-27T11:07:30.759Z,25.90
2018-05-27T11:10:04.386Z,25.90
2018-05-27T11:12:38.033Z,25.70
2018-05-27T11:15:11.590Z,25.80
2018-05-27T11:17:45.134Z,26.00
2018-05-27T11:20:18.905Z,26.30
2018-05-27T11:22:53.355Z,26.40
2018-05-27T11:25:26.909Z,26.40
2018-05-27T11:28:00.708Z,26.60
2018-05-27T11:30:35.597Z,26.80
2018-05-27T11:33:09.925Z,26.60
2018-05-27T11:35:43.459Z,26.60
2018-05-27T11:38:17.114Z,26.40
2018-05-27T11:40:50.655Z,26.50
2018-05-27T11:43:25.132Z,26.80
2018-05-27T11:45:58.730Z,26.80
2018-05-27T11:48:32.310Z,26.80
2018-05-27T11:51:05.894Z,26.90
2018-05-27T11:53:39.517Z,26.90
2018-05-27T11:56:13.090Z,26.70
2018-05-27T11:58:46.788Z,26.80
2018-05-27T12:01:20.469Z,26.60
2018-05-27T12:03:54.758Z,25.90
2018-05-27T12:06:29.154Z,25.80
2018-05-27T12:09:03.535Z,25.90
2018-05-27T12:11:37.248Z,25.90
2018-05-27T12:14:10.793Z,25.90
2018-05-27T12:16:44.613Z,25.90
2018-05-27T12:19:18.391Z,25.70
2018-05-27T12:21:51.929Z,25.60
2018-05-27T12:24:25.440Z,25.50
2018-05-27T12:26:59.009Z,25.50
2018-05-27T12:29:32.709Z,25.70
2018-05-27T12:32:06.234Z,25.80
2018-05-27T12:34:39.830Z,25.80
2018-05-27T12:37:13.443Z,26.20
2018-05-27T12:39:47.166Z,26.50
2018-05-27T12:42:20.746Z,26.10
2018-05-27T12:44:54.339Z,26.10
2018-05-27T12:47:27.821Z,26.20
2018-05-27T12:50:01.478Z,26.30
2018-05-27T12:52:35.119Z,26.40
2018-05-27T12:55:08.804Z,26.40
2018-05-27T12:57:42.491Z,26.40
2018-05-27T13:00:16.084Z,26.50
2018-05-27T13:02:50.630Z,26.60
2018-05-27T13:05:24.176Z,26.60
2018-05-27T13:07:57.725Z,26.40
2018-05-27T13:10:31.351Z,26.40
2018-05-27T13:13:04.941Z,26.40
2018-05-27T13:15:38.478Z,26.40
2018-05-27T13:18:12.017Z,26.20
2018-05-27T13:20:46.257Z,26.10
2018-05-27T13:23:20.028Z,26.00
2018-05-27T13:25:53.554Z,26.10
2018-05-27T13:28:28.075Z,25.70
2018-05-27T13:31:02.421Z,25.70
2018-05-27T13:33:35.974Z,25.70
2018-05-27T13:36:09.598Z,25.60
2018-05-27T13:38:43.259Z,25.50
2018-05-27T13:41:17.737Z,25.30
2018-05-27T13:43:52.222Z,25.30
2018-05-27T13:46:25.871Z,25.30
2018-05-27T13:48:59.541Z,25.40
2018-05-27T13:51:33.250Z,25.30
2018-05-27T13:54:06.900Z,25.20
2018-05-27T13:56:41.283Z,25.10
2018-05-27T13:59:14.903Z,25.10
2018-05-27T14:01:48.462Z,25.20
2018-05-27T14:04:22.043Z,25.20
2018-05-27T14:06:55.765Z,25.00
2018-05-27T14:09:29.460Z,25.00
2018-05-27T14:12:03.099Z,25.00
2018-05-27T14:14:36.667Z,25.00
2018-05-27T14:17:10.251Z,24.80
2018-05-27T14:19:44.685Z,24.80
2018-05-27T14:22:18.623Z,24.80
2018-05-27T14:24:52.316Z,24.90
2018-05-27T14:27:26.130Z,24.70
2018-05-27T14:29:59.808Z,24.80
2018-05-27T14:32:33.515Z,24.80
2018-05-27T14:35:07.101Z,24.90
2018-05-27T14:37:40.834Z,25.00
2018-05-27T14:40:15.218Z,24.50
2018-05-27T14:42:48.801Z,24.50
2018-05-27T14:45:22.335Z,24.20
2018-05-27T14:47:55.960Z,23.70
2018-05-27T14:50:29.471Z,23.70
2018-05-27T14:53:03.052Z,23.80
2018-05-27T14:55:37.570Z,24.10
2018-05-27T14:58:11.065Z,24.10
2018-05-27T15:00:46.191Z,24.30
2018-05-27T15:03:19.909Z,24.40
2018-05-27T15:05:53.628Z,24.50
2018-05-27T15:08:27.175Z,24.40
2018-05-27T15:11:01.599Z,24.50
2018-05-27T15:13:35.390Z,24.50
2018-05-27T15:16:08.948Z,24.40
2018-05-27T15:18:42.590Z,24.40
2018-05-27T15:21:16.109Z,24.50
2018-05-27T15:23:49.737Z,24.60
2018-05-27T15:26:24.233Z,24.60
2018-05-27T15:28:57.849Z,24.50
2018-05-27T15:31:31.402Z,24.60
2018-05-27T15:34:05.161Z,24.10
2018-05-27T15:36:38.866Z,23.70
2018-05-27T15:39:13.285Z,23.40
2018-05-27T15:41:47.052Z,23.40
2018-05-27T15:44:20.811Z,23.40
2018-05-27T15:46:54.487Z,23.50
2018-05-27T15:49:28.079Z,23.70
2018-05-27T15:52:01.830Z,23.90
2018-05-27T15:54:35.380Z,24.00
2018-05-27T15:57:09.003Z,24.00
2018-05-27T15:59:42.688Z,23.90
2018-05-27T16:02:16.309Z,24.00
2018-05-27T16:04:49.797Z,24.30
2018-05-27T16:07:23.514Z,24.40
2018-05-27T16:09:57.085Z,24.30
2018-05-27T16:12:30.812Z,24.10
2018-05-27T16:15:04.344Z,23.90
2018-05-27T16:17:37.910Z,24.40
2018-05-27T16:20:11.407Z,24.40
2018-05-27T16:22:45.822Z,24.50
2018-05-27T16:25:19.372Z,24.50
2018-05-27T16:27:52.938Z,24.90
2018-05-27T16:30:26.583Z,24.90
2018-05-27T16:33:00.382Z,24.40
2018-05-27T16:35:34.186Z,24.80
2018-05-27T16:38:07.775Z,24.50
2018-05-27T16:40:42.616Z,25.00
2018-05-27T16:43:16.310Z,25.00
2018-05-27T16:45:50.010Z,25.40
2018-05-27T16:48:23.540Z,25.70
2018-05-27T16:50:57.207Z,26.30
2018-05-27T16:53:31.616Z,26.90
2018-05-27T16:56:06.093Z,27.50
2018-05-27T16:58:39.645Z,27.40
2018-05-27T17:01:13.229Z,27.50
2018-05-27T17:03:46.733Z,27.80
2018-05-27T17:06:21.243Z,27.90
2018-05-27T17:08:55.549Z,27.20
2018-05-27T17:11:29.148Z,27.20
2018-05-27T17:14:02.773Z,26.20
2018-05-27T17:16:36.262Z,25.30
2018-05-27T17:19:09.918Z,25.30
2018-05-27T17:21:43.577Z,25.70
2018-05-27T17:24:17.119Z,26.00
2018-05-27T17:26:50.842Z,26.20
2018-05-27T17:29:24.352Z,26.40
2018-05-27T17:31:58.042Z,26.20
2018-05-27T17:34:31.756Z,26.10
2018-05-27T17:37:05.396Z,24.90
2018-05-27T17:39:39.204Z,24.40
2018-05-27T17:42:12.688Z,25.00
2018-05-27T17:44:48.278Z,25.50
2018-05-27T17:47:21.971Z,25.50
2018-05-27T17:49:56.530Z,25.10
2018-05-27T17:52:30.855Z,24.80
2018-05-27T17:55:04.452Z,24.80
2018-05-27T17:57:38.063Z,24.70
2018-05-27T18:00:11.592Z,23.70
2018-05-27T18:02:45.933Z,23.40
2018-05-27T18:05:19.668Z,23.40
2018-05-27T18:07:54.177Z,22.50
2018-05-27T18:10:27.729Z,22.40
2018-05-27T18:13:01.248Z,22.40
2018-05-27T18:15:34.860Z,22.50
2018-05-27T18:18:08.397Z,22.40
2018-05-27T18:20:42.021Z,22.80
2018-05-27T18:23:15.719Z,22.90
2018-05-27T18:25:49.310Z,23.10
2018-05-27T18:28:23.076Z,23.20
2018-05-27T18:30:56.766Z,23.20
2018-05-27T18:33:30.378Z,23.30
2018-05-27T18:36:04.664Z,23.40
2018-05-27T18:38:38.243Z,23.40
2018-05-27T18:41:11.802Z,23.40
2018-05-27T18:43:46.157Z,23.30
2018-05-27T18:46:19.868Z,23.20
2018-05-27T18:48:54.378Z,23.20
2018-05-27T18:51:28.063Z,23.10
2018-05-27T18:54:01.788Z,23.00
2018-05-27T18:56:36.294Z,23.00
2018-05-27T18:59:09.968Z,22.90
2018-05-27T19:01:43.693Z,22.90
2018-05-27T19:04:17.299Z,22.80
2018-05-27T19:06:50.808Z,22.80
2018-05-27T19:09:24.496Z,22.70
2018-05-27T19:11:58.136Z,22.60
2018-05-27T19:14:32.540Z,22.50
2018-05-27T19:17:06.145Z,22.40
2018-05-27T19:19:40.434Z,22.20
2018-05-27T19:22:14.137Z,22.20
2018-05-27T19:24:47.814Z,22.10
2018-05-27T19:27:21.334Z,21.80
2018-05-27T19:29:54.931Z,21.60
2018-05-27T19:32:28.536Z,21.50
2018-05-27T19:35:02.056Z,21.30
2018-05-27T19:37:35.648Z,21.20
2018-05-27T19:40:09.283Z,21.20
2018-05-27T19:42:43.117Z,21.20
2018-05-27T19:45:17.010Z,21.10
2018-05-27T19:47:50.652Z,21.00
2018-05-27T19:50:24.168Z,20.80
2018-05-27T19:52:57.687Z,20.60
2018-05-27T19:55:31.248Z,20.30
2018-05-27T19:58:04.854Z,20.20
2018-05-27T20:00:38.508Z,19.60
2018-05-27T20:03:12.052Z,18.70
2018-05-27T20:05:45.565Z,18.90
2018-05-27T20:08:19.165Z,18.60
2018-05-27T20:10:52.767Z,18.00
2018-05-27T20:13:27.085Z,18.50
2018-05-27T20:16:01.492Z,18.60
2018-05-27T20:18:35.289Z,18.60
2018-05-27T20:21:08.816Z,18.70
2018-05-27T20:23:43.142Z,18.60
2018-05-27T20:26:16.647Z,18.60
2018-05-27T20:28:50.244Z,18.30
2018-05-27T20:31:23.775Z,18.30
2018-05-27T20:33:57.346Z,18.40
2018-05-27T20:36:30.907Z,18.40
2018-05-27T20:39:05.396Z,18.40
2018-05-27T20:41:39.024Z,18.40
2018-05-27T20:44:12.545Z,18.30
2018-05-27T20:46:46.115Z,18.30
2018-05-27T20:49:19.641Z,18.40
2018-05-27T20:51:53.138Z,18.30
2018-05-27T20:54:27.450Z,18.20
2018-05-27T20:57:01.778Z,18.30
2018-05-27T20:59:35.548Z,18.30
2018-05-27T21:02:09.218Z,18.20
2018-05-27T21:04:42.782Z,18.10
2018-05-27T21:07:16.344Z,18.00
2018-05-27T21:09:49.899Z,17.90
2018-05-27T21:12:23.495Z,17.90
2018-05-27T21:14:57.071Z,17.90
2018-05-27T21:17:30.692Z,17.90
2018-05-27T21:20:04.983Z,17.80
2018-05-27T21:22:39.637Z,17.70
2018-05-27T21:25:14.032Z,17.60
2018-05-27T21:27:47.784Z,17.60
2018-05-27T21:30:22.065Z,17.30
2018-05-27T21:32:56.366Z,17.40
2018-05-27T21:35:30.100Z,17.30
2018-05-27T21:38:03.594Z,17.30
2018-05-27T21:40:37.169Z,17.30
2018-05-27T21:43:10.804Z,17.30
2018-05-27T21:45:44.380Z,17.30
2018-05-27T21:48:17.972Z,17.40
2018-05-27T21:50:51.602Z,17.50
2018-05-27T21:53:25.937Z,17.20
2018-05-27T21:56:00.310Z,16.90
2018-05-27T21:58:34.763Z,16.80
2018-05-27T22:01:08.334Z,16.80
2018-05-27T22:03:41.933Z,16.80
2018-05-27T22:06:16.250Z,16.30
2018-05-27T22:08:49.982Z,16.30
2018-05-27T22:11:23.578Z,16.40
2018-05-27T22:13:57.090Z,16.40
2018-05-27T22:16:30.722Z,16.60
2018-05-27T22:19:05.057Z,16.80
2018-05-27T22:21:38.781Z,16.80
2018-05-27T22:24:12.333Z,16.90
2018-05-27T22:26:45.896Z,16.90
2018-05-27T22:29:19.519Z,16.80
2018-05-27T22:31:53.173Z,16.60
2018-05-27T22:34:26.779Z,16.70
2018-05-27T22:37:00.297Z,16.70
2018-05-27T22:39:33.828Z,16.50
2018-05-27T22:42:07.565Z,16.40
2018-05-27T22:44:41.125Z,16.30
2018-05-27T22:47:14.605Z,16.30
2018-05-27T22:49:48.222Z,16.30
2018-05-27T22:52:21.775Z,16.30
2018-05-27T22:54:55.306Z,16.30
2018-05-27T22:57:28.858Z,16.20
2018-05-27T23:00:02.485Z,16.20
2018-05-27T23:02:36.170Z,16.10
2018-05-27T23:05:09.764Z,16.00
2018-05-27T23:07:43.377Z,16.00
2018-05-27T23:10:16.989Z,16.10
2018-05-27T23:12:50.732Z,16.10
2018-05-27T23:15:24.415Z,15.20
2018-05-27T23:17:57.913Z,14.50
2018-05-27T23:20:31.449Z,14.70
2018-05-27T23:23:05.034Z,15.00
2018-05-27T23:25:38.729Z,15.10
2018-05-27T23:28:12.449Z,15.30
2018-05-27T23:30:46.035Z,15.40
2018-05-27T23:33:19.589Z,15.50
2018-05-27T23:35:53.290Z,15.40
2018-05-27T23:38:26.899Z,15.40
2018-05-27T23:41:00.506Z,15.50
2018-05-27T23:43:34.796Z,15.40
2018-05-27T23:46:09.199Z,15.40
2018-05-27T23:48:42.761Z,15.40
2018-05-27T23:51:16.613Z,15.40
2018-05-27T23:53:50.271Z,15.30
2018-05-27T23:56:23.853Z,15.30
2018-05-27T23:58:57.448Z,15.30
